createdAt,value
2023-01-30T00:01:49.990Z,26.67
2023-01-30T00:04:17.431Z,27.10
2023-01-30T00:06:44.465Z,23.03
2023-01-30T00:09:12.783Z,27.37
2023-01-30T00:11:41.006Z,29.73
2023-01-30T00:14:08.575Z,25.43
2023-01-30T00:16:35.608Z,26.17
2023-01-30T00:19:02.498Z,26.23
2023-01-30T00:21:29.379Z,29.43
2023-01-30T00:23:56.297Z,28.33
2023-01-30T00:26:23.157Z,25.97
2023-01-30T00:28:51.378Z,26.97
2023-01-30T00:31:18.363Z,23.40
2023-01-30T00:33:45.243Z,24.33
2023-01-30T00:36:13.579Z,25.20
2023-01-30T00:38:40.572Z,28.33
2023-01-30T00:41:07.626Z,28.83
2023-01-30T00:43:53.493Z,27.70
2023-01-30T00:46:45.102Z,26.77
2023-01-30T00:49:12.287Z,27.90
2023-01-30T00:51:39.201Z,28.10
2023-01-30T00:54:06.148Z,28.20
2023-01-30T00:56:33.121Z,26.93
2023-01-30T00:59:00.029Z,22.53
2023-01-30T01:01:28.396Z,24.03
2023-01-30T01:03:55.334Z,25.80
2023-01-30T01:06:22.209Z,23.60
2023-01-30T01:08:48.994Z,28.70
2023-01-30T01:11:24.308Z,23.70
2023-01-30T01:13:53.162Z,27.17
2023-01-30T01:16:20.756Z,28.57
2023-01-30T01:18:49.446Z,24.63
2023-01-30T01:21:17.634Z,31.27
2023-01-30T01:23:50.079Z,24.87
2023-01-30T01:26:16.889Z,28.57
2023-01-30T01:28:43.754Z,29.13
2023-01-30T01:31:11.827Z,28.80
2023-01-30T01:33:39.021Z,27.13
2023-01-30T01:36:08.629Z,28.33
2023-01-30T01:38:35.580Z,27.73
2023-01-30T01:41:02.500Z,26.77
2023-01-30T01:43:32.403Z,30.43
2023-01-30T01:46:02.680Z,28.73
2023-01-30T01:48:32.637Z,27.97
2023-01-30T01:51:03.563Z,32.77
2023-01-30T01:53:36.302Z,26.63
2023-01-30T01:56:05.666Z,32.20
2023-01-30T01:58:39.094Z,27.73
2023-01-30T02:01:07.107Z,31.77
2023-01-30T02:03:37.819Z,29.47
2023-01-30T02:06:05.940Z,28.77
2023-01-30T02:08:38.492Z,23.73
2023-01-30T02:11:09.534Z,30.03
2023-01-30T02:13:36.599Z,28.00
2023-01-30T02:16:05.425Z,27.23
2023-01-30T02:18:34.094Z,28.60
2023-01-30T02:21:59.697Z,25.23
2023-01-30T02:24:54.253Z,27.00
2023-01-30T02:27:41.559Z,24.20
2023-01-30T02:30:58.501Z,25.53
2023-01-30T02:33:35.975Z,28.70
2023-01-30T02:36:11.004Z,26.77
2023-01-30T02:38:45.035Z,27.57
2023-01-30T02:41:20.048Z,27.53
2023-01-30T02:43:56.460Z,30.77
2023-01-30T02:46:31.724Z,23.03
2023-01-30T02:49:05.252Z,27.60
2023-01-30T02:51:36.105Z,23.27
2023-01-30T02:54:05.145Z,28.97
2023-01-30T02:56:43.994Z,28.07
2023-01-30T02:59:10.840Z,23.17
2023-01-30T03:02:08.390Z,26.63
2023-01-30T03:05:06.062Z,26.03
2023-01-30T03:07:42.717Z,23.17
2023-01-30T03:10:17.987Z,23.40
2023-01-30T03:12:52.768Z,25.50
2023-01-30T03:15:27.440Z,25.10
2023-01-30T03:17:56.110Z,22.40
2023-01-30T03:20:23.577Z,25.33
2023-01-30T03:22:50.424Z,28.20
2023-01-30T03:25:20.949Z,24.03
2023-01-30T03:27:50.139Z,26.40
2023-01-30T03:30:17.702Z,23.97
2023-01-30T03:32:44.558Z,23.53
2023-01-30T03:35:13.050Z,22.03
2023-01-30T03:37:39.956Z,26.53
2023-01-30T03:40:08.199Z,25.03
2023-01-30T03:42:35.076Z,25.27
2023-01-30T03:45:01.934Z,26.27
2023-01-30T03:47:28.794Z,25.43
2023-01-30T03:49:55.688Z,26.37
2023-01-30T03:52:23.893Z,23.93
2023-01-30T03:54:50.713Z,23.07
2023-01-30T03:57:17.538Z,26.67
2023-01-30T03:59:44.365Z,25.67
2023-01-30T04:02:11.340Z,27.17
2023-01-30T04:04:38.232Z,26.00
2023-01-30T04:07:05.132Z,26.70
2023-01-30T04:09:33.277Z,27.97
2023-01-30T04:12:00.207Z,27.53
2023-01-30T04:14:27.136Z,27.67
2023-01-30T04:16:54.065Z,23.77
2023-01-30T04:19:20.935Z,25.60
2023-01-30T04:21:47.835Z,28.13
2023-01-30T04:24:14.718Z,25.87
2023-01-30T04:26:42.999Z,30.50
2023-01-30T04:29:09.979Z,30.53
2023-01-30T04:31:36.902Z,30.97
2023-01-30T04:34:03.910Z,31.60
2023-01-30T04:36:30.755Z,31.13
2023-01-30T04:38:58.241Z,29.63
2023-01-30T04:41:25.184Z,33.10
2023-01-30T04:43:53.379Z,31.87
2023-01-30T04:46:20.296Z,28.77
2023-01-30T04:48:47.116Z,32.77
2023-01-30T04:51:13.966Z,30.03
2023-01-30T04:53:40.929Z,28.60
2023-01-30T04:56:08.150Z,31.87
2023-01-30T04:58:35.084Z,29.83
2023-01-30T05:01:21.419Z,26.83
2023-01-30T05:03:50.289Z,27.37
2023-01-30T05:06:17.148Z,28.70
2023-01-30T05:08:46.750Z,28.23
2023-01-30T05:11:13.702Z,28.83
2023-01-30T05:13:40.638Z,30.73
2023-01-30T05:16:07.777Z,26.63
2023-01-30T05:18:36.042Z,29.70
2023-01-30T05:21:07.080Z,29.10
2023-01-30T05:23:34.144Z,31.13
2023-01-30T05:26:01.156Z,28.70
2023-01-30T05:28:28.930Z,28.30
2023-01-30T05:31:00.730Z,27.63
2023-01-30T05:33:27.787Z,27.73
2023-01-30T05:35:56.139Z,27.97
2023-01-30T05:38:23.331Z,28.80
2023-01-30T05:40:58.457Z,32.60
2023-01-30T05:43:25.287Z,24.73
2023-01-30T05:45:53.473Z,25.30
2023-01-30T05:48:20.682Z,28.33
2023-01-30T05:50:47.782Z,29.50
2023-01-30T05:53:16.016Z,25.73
2023-01-30T05:55:43.811Z,25.50
2023-01-30T05:58:10.662Z,23.70
2023-01-30T06:00:37.505Z,21.70
2023-01-30T06:03:05.245Z,21.93
2023-01-30T06:05:32.172Z,22.53
2023-01-30T06:07:58.990Z,24.50
2023-01-30T06:10:27.247Z,26.63
2023-01-30T06:12:54.085Z,24.17
2023-01-30T06:15:21.059Z,23.23
2023-01-30T06:17:47.877Z,22.47
2023-01-30T06:20:15.012Z,22.73
2023-01-30T06:22:41.887Z,20.77
2023-01-30T06:25:09.507Z,23.87
2023-01-30T06:27:37.700Z,25.60
2023-01-30T06:30:05.325Z,19.47
2023-01-30T06:32:32.255Z,20.43
2023-01-30T06:34:59.161Z,22.30
2023-01-30T06:37:25.947Z,24.97
2023-01-30T06:39:52.743Z,21.87
2023-01-30T06:42:19.581Z,19.07
2023-01-30T06:44:47.764Z,22.47
2023-01-30T06:47:14.597Z,26.47
2023-01-30T06:49:41.446Z,22.97
2023-01-30T06:52:08.302Z,18.70
2023-01-30T06:54:35.165Z,20.80
2023-01-30T06:57:01.985Z,20.20
2023-01-30T06:59:29.013Z,20.07
2023-01-30T07:01:57.181Z,18.23
2023-01-30T07:04:24.158Z,20.20
2023-01-30T07:06:50.988Z,18.40
2023-01-30T07:09:17.967Z,19.57
2023-01-30T07:11:44.834Z,20.97
2023-01-30T07:14:11.852Z,18.00
2023-01-30T07:16:38.709Z,16.87
2023-01-30T07:19:06.922Z,17.13
2023-01-30T07:21:33.787Z,19.87
2023-01-30T07:24:00.617Z,18.67
2023-01-30T07:26:29.636Z,17.73
2023-01-30T07:28:56.515Z,18.20
2023-01-30T07:31:23.332Z,20.30
2023-01-30T07:33:50.149Z,17.27
2023-01-30T07:36:18.414Z,15.90
2023-01-30T07:38:47.590Z,19.43
2023-01-30T07:41:14.429Z,16.57
2023-01-30T07:43:41.253Z,16.20
2023-01-30T07:46:08.898Z,20.10
2023-01-30T07:48:35.735Z,19.07
2023-01-30T07:51:02.592Z,19.30
2023-01-30T07:53:30.816Z,19.15
2023-01-30T07:55:57.715Z,18.40
2023-01-30T07:58:24.604Z,21.67
2023-01-30T08:00:55.493Z,21.47
2023-01-30T08:03:22.762Z,19.80
2023-01-30T08:05:50.038Z,19.63
2023-01-30T08:08:16.924Z,20.80
2023-01-30T08:10:45.420Z,16.90
2023-01-30T08:13:12.390Z,18.60
2023-01-30T08:15:39.280Z,20.87
2023-01-30T08:18:07.373Z,23.10
2023-01-30T08:20:34.826Z,17.10
2023-01-30T08:23:04.443Z,22.27
2023-01-30T08:25:31.399Z,20.00
2023-01-30T08:28:00.509Z,16.40
2023-01-30T08:30:30.280Z,18.77
2023-01-30T08:32:57.636Z,22.43
2023-01-30T08:35:24.530Z,20.67
2023-01-30T08:37:51.457Z,16.80
2023-01-30T08:40:18.648Z,17.00
2023-01-30T08:42:46.013Z,16.83
2023-01-30T08:45:14.736Z,17.40
2023-01-30T08:47:41.587Z,16.10
2023-01-30T08:50:09.770Z,17.20
2023-01-30T08:52:36.550Z,23.77
2023-01-30T08:55:03.783Z,16.40
2023-01-30T08:57:32.485Z,17.23
2023-01-30T08:59:59.507Z,16.80
2023-01-30T09:02:28.029Z,18.10
2023-01-30T09:04:55.002Z,15.57
2023-01-30T09:07:21.955Z,15.03
2023-01-30T09:09:48.756Z,15.97
2023-01-30T09:12:16.134Z,15.57
2023-01-30T09:14:43.011Z,15.20
2023-01-30T09:17:09.860Z,16.37
2023-01-30T09:19:38.329Z,14.23
2023-01-30T09:22:07.295Z,11.83
2023-01-30T09:24:34.395Z,14.97
2023-01-30T09:27:01.318Z,19.20
2023-01-30T09:29:29.057Z,15.27
2023-01-30T09:31:56.664Z,12.23
2023-01-30T09:34:27.575Z,13.10
2023-01-30T09:36:56.300Z,11.20
2023-01-30T09:39:23.433Z,14.17
2023-01-30T09:42:38.456Z,10.97
2023-01-30T09:45:40.830Z,10.00
2023-01-30T09:48:19.956Z,7.53
2023-01-30T09:51:11.456Z,7.97
2023-01-30T09:54:03.351Z,5.53
2023-01-30T09:56:30.789Z,6.33
2023-01-30T09:58:59.855Z,6.57
2023-01-30T10:01:36.890Z,6.17
2023-01-30T10:04:12.628Z,5.77
2023-01-30T10:06:49.404Z,5.67
2023-01-30T10:09:27.231Z,5.37
2023-01-30T10:12:06.106Z,6.07
2023-01-30T10:14:52.547Z,4.20
2023-01-30T10:17:40.782Z,4.20
2023-01-30T10:20:31.741Z,3.97
2023-01-30T10:23:15.441Z,5.43
2023-01-30T10:25:47.201Z,4.57
2023-01-30T10:28:20.655Z,4.03
2023-01-30T10:30:53.435Z,3.97
2023-01-30T10:33:26.415Z,4.57
2023-01-30T10:36:01.829Z,3.73
2023-01-30T10:38:34.359Z,4.40
2023-01-30T10:41:10.442Z,6.67
2023-01-30T10:43:41.455Z,8.43
2023-01-30T10:46:28.384Z,3.60
2023-01-30T10:48:59.585Z,6.87
2023-01-30T10:51:35.537Z,3.17
2023-01-30T10:54:09.275Z,4.17
2023-01-30T10:56:45.784Z,4.43
2023-01-30T10:59:23.874Z,5.30
2023-01-30T11:01:59.883Z,3.10
2023-01-30T11:04:32.233Z,2.93
2023-01-30T11:07:01.634Z,3.40
2023-01-30T11:09:44.140Z,2.23
2023-01-30T11:12:13.974Z,6.33
2023-01-30T11:14:55.077Z,2.23
2023-01-30T11:17:29.860Z,2.77
2023-01-30T11:19:58.358Z,2.87
2023-01-30T11:22:27.048Z,3.20
2023-01-30T11:25:06.346Z,3.47
2023-01-30T11:27:36.211Z,2.03
2023-01-30T11:30:07.491Z,2.17
2023-01-30T11:32:34.524Z,2.70
2023-01-30T11:35:18.460Z,1.33
2023-01-30T11:37:45.941Z,4.27
2023-01-30T11:40:25.616Z,2.63
2023-01-30T11:43:02.237Z,2.73
2023-01-30T11:45:36.015Z,2.30
2023-01-30T11:48:23.439Z,2.67
2023-01-30T11:51:01.514Z,2.97
2023-01-30T11:53:33.526Z,3.27
2023-01-30T11:56:09.809Z,1.57
2023-01-30T11:58:41.114Z,1.87
2023-01-30T12:01:10.968Z,2.33
2023-01-30T12:03:48.803Z,3.27
2023-01-30T12:06:23.685Z,1.40
2023-01-30T12:08:54.042Z,4.13
2023-01-30T12:11:27.956Z,2.93
2023-01-30T12:14:09.131Z,2.23
2023-01-30T12:16:52.610Z,2.37
2023-01-30T12:19:31.116Z,1.80
2023-01-30T12:22:04.225Z,1.67
2023-01-30T12:24:39.649Z,2.43
2023-01-30T12:27:13.677Z,1.93
2023-01-30T12:29:54.200Z,2.10
2023-01-30T12:32:25.631Z,3.23
2023-01-30T12:34:52.546Z,3.43
2023-01-30T12:37:34.535Z,3.00
2023-01-30T12:40:10.458Z,2.67
2023-01-30T12:42:58.541Z,3.47
2023-01-30T12:45:30.863Z,2.87
2023-01-30T12:48:23.566Z,3.13
2023-01-30T12:51:05.931Z,4.40
2023-01-30T12:53:43.836Z,2.03
2023-01-30T12:56:37.312Z,4.90
2023-01-30T12:59:10.400Z,2.13
2023-01-30T13:01:48.902Z,3.67
2023-01-30T13:04:24.964Z,5.37
2023-01-30T13:07:06.726Z,3.37
2023-01-30T13:09:48.457Z,4.53
2023-01-30T13:12:24.130Z,1.93
2023-01-30T13:14:59.109Z,1.87
2023-01-30T13:17:44.561Z,3.03
2023-01-30T13:20:22.779Z,1.97
2023-01-30T13:22:58.110Z,1.10
2023-01-30T13:25:32.719Z,2.77
2023-01-30T13:28:06.164Z,5.93
2023-01-30T13:30:35.576Z,2.47
2023-01-30T13:33:09.295Z,5.23
2023-01-30T13:35:43.619Z,3.10
2023-01-30T13:38:17.136Z,2.40
2023-01-30T13:40:45.593Z,3.37
2023-01-30T13:43:19.894Z,4.30
2023-01-30T13:45:49.334Z,4.23
2023-01-30T13:48:33.785Z,4.07
2023-01-30T13:51:16.782Z,2.93
2023-01-30T13:53:49.486Z,5.90
2023-01-30T13:56:40.695Z,4.43
2023-01-30T13:59:17.349Z,2.97
2023-01-30T14:02:19.322Z,2.83
2023-01-30T14:04:50.438Z,3.90
2023-01-30T14:07:23.274Z,5.17
2023-01-30T14:10:02.031Z,8.10
2023-01-30T14:12:35.406Z,4.83
2023-01-30T14:15:06.875Z,4.40
2023-01-30T14:17:34.256Z,2.80
2023-01-30T14:20:15.143Z,4.50
2023-01-30T14:22:51.870Z,2.93
2023-01-30T14:25:44.974Z,6.87
2023-01-30T14:28:49.351Z,5.73
2023-01-30T14:31:52.979Z,4.10
2023-01-30T14:34:48.251Z,5.97
2023-01-30T14:38:06.825Z,4.97
2023-01-30T14:40:37.216Z,7.47
2023-01-30T14:43:35.533Z,4.57
2023-01-30T14:46:06.614Z,3.17
2023-01-30T14:48:39.765Z,4.13
2023-01-30T14:51:18.647Z,6.60
2023-01-30T14:53:56.324Z,11.53
2023-01-30T14:56:41.237Z,5.40
2023-01-30T14:59:17.069Z,11.27
2023-01-30T15:02:02.503Z,8.67
2023-01-30T15:04:33.221Z,10.00
2023-01-30T15:07:04.445Z,9.37
2023-01-30T15:09:33.792Z,10.33
2023-01-30T15:12:20.536Z,9.43
2023-01-30T15:14:55.404Z,10.20
2023-01-30T15:17:33.025Z,11.70
2023-01-30T15:20:35.455Z,5.70
2023-01-30T15:23:35.594Z,7.17
2023-01-30T15:26:16.341Z,8.67
2023-01-30T15:28:52.394Z,4.00
2023-01-30T15:31:22.382Z,6.40
2023-01-30T15:33:50.883Z,7.10
2023-01-30T15:36:20.134Z,11.17
2023-01-30T15:38:55.543Z,10.13
2023-01-30T15:41:24.269Z,11.97
2023-01-30T15:44:14.650Z,10.40
2023-01-30T15:46:48.740Z,5.97
2023-01-30T15:49:48.276Z,9.00
2023-01-30T15:52:19.606Z,9.13
2023-01-30T15:54:51.651Z,8.13
2023-01-30T15:57:25.644Z,6.37
2023-01-30T15:59:54.431Z,5.83
2023-01-30T16:02:29.098Z,11.73
2023-01-30T16:05:14.133Z,10.17
2023-01-30T16:07:41.555Z,9.63
2023-01-30T16:10:13.263Z,14.03
2023-01-30T16:12:41.894Z,14.20
2023-01-30T16:15:19.890Z,8.70
2023-01-30T16:17:55.762Z,9.53
2023-01-30T16:20:22.819Z,12.97
2023-01-30T16:22:49.950Z,9.93
2023-01-30T16:25:22.191Z,12.50
2023-01-30T16:27:52.276Z,8.30
2023-01-30T16:30:25.123Z,12.20
2023-01-30T16:32:54.526Z,8.77
2023-01-30T16:35:34.010Z,9.70
2023-01-30T16:38:03.183Z,7.07
2023-01-30T16:40:33.160Z,14.93
2023-01-30T16:43:02.697Z,13.63
2023-01-30T16:46:20.511Z,11.30
2023-01-30T16:48:47.535Z,7.57
2023-01-30T16:51:21.358Z,7.40
2023-01-30T16:54:02.426Z,10.27
2023-01-30T16:56:31.651Z,11.87
2023-01-30T16:59:01.601Z,7.70
2023-01-30T17:01:40.659Z,8.00
2023-01-30T17:04:18.867Z,14.33
2023-01-30T17:06:53.110Z,8.80
2023-01-30T17:09:37.137Z,7.30
2023-01-30T17:12:37.724Z,11.73
2023-01-30T17:15:29.193Z,10.97
2023-01-30T17:17:56.378Z,13.23
2023-01-30T17:20:23.585Z,10.47
2023-01-30T17:22:53.002Z,10.10
2023-01-30T17:25:29.130Z,8.27
2023-01-30T17:27:56.750Z,9.10
2023-01-30T17:30:23.702Z,8.77
2023-01-30T17:32:51.886Z,11.80
2023-01-30T17:35:19.268Z,6.87
2023-01-30T17:37:56.279Z,12.43
2023-01-30T17:40:33.606Z,11.57
2023-01-30T17:43:00.590Z,15.57
2023-01-30T17:45:27.565Z,10.73
2023-01-30T17:47:55.871Z,11.23
2023-01-30T17:50:23.013Z,15.53
2023-01-30T17:52:49.926Z,17.00
2023-01-30T17:55:18.462Z,10.87
2023-01-30T17:57:48.030Z,10.10
2023-01-30T18:00:17.757Z,11.40
2023-01-30T18:02:44.898Z,6.80
2023-01-30T18:05:13.555Z,7.67
2023-01-30T18:07:41.453Z,11.43
2023-01-30T18:10:14.362Z,11.13
2023-01-30T18:12:41.419Z,10.20
2023-01-30T18:15:10.360Z,11.03
2023-01-30T18:17:42.463Z,12.27
2023-01-30T18:20:14.164Z,4.80
2023-01-30T18:22:41.211Z,9.23
2023-01-30T18:25:08.795Z,10.50
2023-01-30T18:27:35.842Z,6.73
2023-01-30T18:30:03.518Z,15.40
2023-01-30T18:32:31.943Z,17.30
2023-01-30T18:35:00.234Z,10.13
2023-01-30T18:37:29.731Z,13.97
2023-01-30T18:39:56.804Z,20.03
2023-01-30T18:42:23.889Z,9.47
2023-01-30T18:44:50.745Z,10.70
2023-01-30T18:47:17.628Z,6.77
2023-01-30T18:49:44.727Z,11.23
2023-01-30T18:52:11.530Z,14.03
2023-01-30T18:54:39.875Z,13.80
2023-01-30T18:57:06.886Z,9.63
2023-01-30T18:59:34.050Z,12.83
2023-01-30T19:02:00.889Z,10.60
2023-01-30T19:04:27.815Z,9.80
2023-01-30T19:06:54.808Z,9.67
2023-01-30T19:09:21.918Z,7.37
2023-01-30T19:12:08.658Z,11.63
2023-01-30T19:14:35.987Z,11.23
2023-01-30T19:17:03.038Z,11.97
2023-01-30T19:19:30.214Z,10.23
2023-01-30T19:21:57.080Z,14.57
2023-01-30T19:24:24.164Z,13.23
2023-01-30T19:26:53.195Z,11.13
2023-01-30T19:29:20.548Z,11.60
2023-01-30T19:31:47.971Z,12.90
2023-01-30T19:34:14.922Z,10.67
2023-01-30T19:36:41.926Z,16.53
2023-01-30T19:39:10.226Z,12.63
2023-01-30T19:41:38.020Z,20.60
2023-01-30T19:44:08.142Z,8.43
2023-01-30T19:46:35.798Z,16.50
2023-01-30T19:49:03.570Z,11.47
2023-01-30T19:51:32.389Z,7.53
2023-01-30T19:54:00.656Z,10.67
2023-01-30T19:56:29.070Z,15.97
2023-01-30T19:58:58.503Z,15.07
2023-01-30T20:01:30.505Z,10.03
2023-01-30T20:03:58.968Z,9.10
2023-01-30T20:06:28.137Z,12.67
2023-01-30T20:08:58.326Z,11.07
2023-01-30T20:11:25.728Z,14.27
2023-01-30T20:13:54.327Z,12.07
2023-01-30T20:16:24.905Z,13.13
2023-01-30T20:18:57.224Z,17.30
2023-01-30T20:21:25.345Z,11.10
2023-01-30T20:23:53.033Z,12.90
2023-01-30T20:26:22.615Z,21.50
2023-01-30T20:28:50.378Z,14.50
2023-01-30T20:31:19.390Z,14.37
2023-01-30T20:33:46.564Z,11.17
2023-01-30T20:36:18.761Z,18.23
2023-01-30T20:38:47.887Z,13.93
2023-01-30T20:41:16.828Z,16.90
2023-01-30T20:43:45.712Z,13.53
2023-01-30T20:46:14.529Z,11.47
2023-01-30T20:48:42.039Z,12.97
2023-01-30T20:51:11.563Z,12.73
2023-01-30T20:53:45.642Z,11.77
2023-01-30T20:56:12.648Z,10.37
2023-01-30T20:58:39.911Z,10.80
2023-01-30T21:01:08.415Z,14.13
2023-01-30T21:03:35.635Z,12.27
2023-01-30T21:06:03.455Z,18.07
2023-01-30T21:08:31.085Z,9.83
2023-01-30T21:11:06.733Z,10.27
2023-01-30T21:13:34.776Z,18.13
2023-01-30T21:16:04.082Z,10.53
2023-01-30T21:18:32.438Z,14.43
2023-01-30T21:21:00.049Z,20.40
2023-01-30T21:23:27.316Z,11.97
2023-01-30T21:25:54.917Z,13.87
2023-01-30T21:28:23.453Z,13.87
2023-01-30T21:30:50.531Z,13.20
2023-01-30T21:33:17.458Z,5.13
2023-01-30T21:35:44.363Z,15.20
2023-01-30T21:38:30.111Z,13.17
2023-01-30T21:41:15.437Z,11.30
2023-01-30T21:43:46.907Z,13.83
2023-01-30T21:46:16.595Z,10.70
2023-01-30T21:48:43.622Z,9.50
2023-01-30T21:51:12.083Z,9.30
2023-01-30T21:53:39.103Z,15.23
2023-01-30T21:56:06.793Z,11.30
2023-01-30T21:58:34.247Z,13.57
2023-01-30T22:01:07.729Z,14.00
2023-01-30T22:03:35.633Z,10.40
2023-01-30T22:06:02.754Z,11.10
2023-01-30T22:08:29.797Z,15.27
2023-01-30T22:11:07.794Z,14.00
2023-01-30T22:13:35.274Z,18.03
2023-01-30T22:16:03.160Z,11.90
2023-01-30T22:18:32.874Z,11.00
2023-01-30T22:21:07.525Z,12.33
2023-01-30T22:23:36.307Z,13.93
2023-01-30T22:26:04.318Z,12.00
2023-01-30T22:28:32.020Z,8.93
2023-01-30T22:31:03.433Z,13.93
2023-01-30T22:33:32.210Z,13.60
2023-01-30T22:35:59.718Z,11.50
2023-01-30T22:38:27.045Z,12.47
2023-01-30T22:41:01.363Z,13.43
2023-01-30T22:43:28.914Z,12.83
2023-01-30T22:46:00.843Z,13.33
2023-01-30T22:48:28.057Z,12.87
2023-01-30T22:51:07.500Z,8.93
2023-01-30T22:53:35.927Z,13.93
2023-01-30T22:56:06.094Z,7.70
2023-01-30T22:58:33.262Z,11.93
2023-01-30T23:01:08.957Z,10.60
2023-01-30T23:03:36.234Z,15.67
2023-01-30T23:06:06.912Z,13.37
2023-01-30T23:08:36.807Z,16.40
2023-01-30T23:11:09.489Z,12.03
2023-01-30T23:13:36.826Z,11.40
2023-01-30T23:16:05.676Z,11.30
2023-01-30T23:18:52.184Z,11.70
2023-01-30T23:21:20.526Z,8.00
2023-01-30T23:23:47.706Z,13.23
2023-01-30T23:26:15.000Z,14.67
2023-01-30T23:28:42.044Z,11.90
2023-01-30T23:31:10.520Z,10.73
2023-01-30T23:33:38.130Z,7.50
2023-01-30T23:36:06.837Z,13.03
2023-01-30T23:38:36.454Z,11.63
2023-01-30T23:41:09.263Z,8.80
2023-01-30T23:43:36.482Z,6.50
2023-01-30T23:46:18.642Z,9.47
2023-01-30T23:48:47.495Z,14.17
2023-01-30T23:51:16.249Z,11.30
2023-01-30T23:53:45.417Z,9.67
2023-01-30T23:56:13.166Z,8.67
2023-01-30T23:58:40.644Z,12.73
